Time;durP1;ratioP1;P1;durP2;ratioP2;P2;SDS_P1;SDS_P2;PMS_P1;PMS_P2;Temp;Humidity;BMP_temperature;BMP_pressure;BME280_temperature;BME280_humidity;BME280_pressure;Samples;Min_cycle;Max_cycle;Signal;HPM_P1;HPM_P2
2022/10/10 00:01:42;;;;;;;4.53;3.00;;;8.70;99.90;;;;;;5017066;28;20218;-70
2022/10/10 00:04:10;;;;;;;3.80;2.35;;;8.80;99.90;;;;;;5003075;28;20222;-69
2022/10/10 00:06:40;;;;;;;8.13;3.42;;;8.80;99.90;;;;;;5009703;28;20190;-70
2022/10/10 00:09:09;;;;;;;6.38;2.53;;;8.70;99.90;;;;;;5016715;28;20190;-69
2022/10/10 00:11:37;;;;;;;3.72;2.33;;;8.70;99.90;;;;;;5016573;28;20214;-70
2022/10/10 00:14:06;;;;;;;6.65;2.83;;;8.80;99.90;;;;;;5015955;28;20202;-68
2022/10/10 00:16:34;;;;;;;6.57;2.70;;;8.70;99.90;;;;;;5009712;28;20273;-69
2022/10/10 00:19:03;;;;;;;7.93;2.60;;;8.60;99.90;;;;;;4996720;28;20262;-70
2022/10/10 00:21:31;;;;;;;3.05;2.17;;;8.60;99.90;;;;;;4996561;28;20567;-69
2022/10/10 00:24:01;;;;;;;7.63;2.80;;;8.60;99.90;;;;;;5003658;28;20224;-69
2022/10/10 00:26:30;;;;;;;4.05;2.63;;;8.50;99.90;;;;;;5010345;28;20201;-70
2022/10/10 00:28:58;;;;;;;3.65;2.20;;;8.50;99.90;;;;;;5009997;28;20210;-69
2022/10/10 00:31:27;;;;;;;5.63;2.75;;;8.50;99.90;;;;;;4996371;28;20186;-69
2022/10/10 00:33:55;;;;;;;3.65;2.55;;;8.50;99.90;;;;;;4996270;28;20285;-70
2022/10/10 00:36:24;;;;;;;4.72;3.20;;;8.40;99.90;;;;;;5002655;28;20205;-69
2022/10/10 00:38:52;;;;;;;3.80;2.75;;;8.30;99.90;;;;;;5015993;28;20233;-69
2022/10/10 00:41:22;;;;;;;3.78;2.05;;;8.40;99.90;;;;;;5002927;28;20203;-69
2022/10/10 00:44:08;;;;;;;2.75;2.17;;;8.30;99.90;;;;;;4996175;28;20297;-70
2022/10/10 00:46:37;;;;;;;3.47;2.13;;;8.40;99.90;;;;;;4995729;28;20199;-69
2022/10/10 00:49:10;;;;;;;3.60;2.72;;;8.30;99.90;;;;;;4995857;28;20195;-69
2022/10/10 00:51:38;;;;;;;3.47;1.98;;;8.30;99.90;;;;;;5005415;28;20194;-69
2022/10/10 00:54:10;;;;;;;2.42;2.22;;;8.30;99.90;;;;;;5015496;28;20202;-70
2022/10/10 00:56:44;;;;;;;6.22;2.50;;;8.30;99.90;;;;;;5015101;28;20196;-69
2022/10/10 00:59:12;;;;;;;9.05;2.83;;;8.20;99.90;;;;;;5015348;28;20194;-68
2022/10/10 01:01:41;;;;;;;5.43;2.70;;;8.20;99.90;;;;;;5015503;28;20190;-68
2022/10/10 01:04:29;;;;;;;2.83;2.33;;;8.20;99.90;;;;;;5015854;28;20232;-69
2022/10/10 01:07:01;;;;;;;9.52;2.70;;;8.10;99.90;;;;;;5016326;28;20204;-69
2022/10/10 01:09:31;;;;;;;5.40;2.42;;;8.00;99.90;;;;;;5010930;28;20198;-68
2022/10/10 01:12:14;;;;;;;4.50;2.90;;;8.10;99.90;;;;;;5003650;28;20620;-70
2022/10/10 01:14:52;;;;;;;7.90;3.88;;;8.10;99.90;;;;;;4997845;28;20201;-69
2022/10/10 01:17:27;;;;;;;5.50;2.58;;;8.00;99.90;;;;;;5015399;28;20194;-69
2022/10/10 01:20:34;;;;;;;4.55;2.88;;;8.00;99.90;;;;;;5015279;28;20170;-69
2022/10/10 01:23:27;;;;;;;9.90;2.35;;;8.00;99.90;;;;;;5014924;28;20202;-69
2022/10/10 01:26:12;;;;;;;4.47;3.05;;;8.00;99.90;;;;;;5015063;28;20635;-69
2022/10/10 01:28:50;;;;;;;7.07;2.97;;;8.00;99.90;;;;;;5003297;28;20196;-69
2022/10/10 01:31:23;;;;;;;7.80;3.22;;;8.00;99.90;;;;;;5014894;28;20600;-69
2022/10/10 01:34:01;;;;;;;3.53;2.15;;;7.90;99.90;;;;;;5005081;28;20761;-69
2022/10/10 01:36:38;;;;;;;6.47;2.67;;;8.00;99.90;;;;;;5013868;28;20190;-69
2022/10/10 01:39:13;;;;;;;3.20;1.98;;;7.90;99.90;;;;;;5007678;28;20197;-69
2022/10/10 01:41:48;;;;;;;5.95;3.17;;;7.90;99.90;;;;;;5014687;28;20193;-70
2022/10/10 01:44:21;;;;;;;3.35;2.78;;;7.90;99.90;;;;;;5014308;28;20220;-68
2022/10/10 01:46:49;;;;;;;3.03;2.47;;;7.80;99.90;;;;;;5014977;28;20693;-69
2022/10/10 01:49:18;;;;;;;4.45;2.50;;;7.80;99.90;;;;;;5006887;28;20191;-70
2022/10/10 01:52:02;;;;;;;5.78;2.95;;;7.80;99.90;;;;;;5009028;28;20202;-69
2022/10/10 01:54:41;;;;;;;4.53;2.63;;;7.80;99.90;;;;;;5015137;28;20288;-69
2022/10/10 01:57:19;;;;;;;8.65;2.30;;;7.80;99.90;;;;;;5014855;28;20186;-69
2022/10/10 02:00:00;;;;;;;6.38;3.10;;;7.80;99.90;;;;;;5013462;28;20202;-70
2022/10/10 02:02:48;;;;;;;7.00;2.47;;;7.80;99.90;;;;;;5013775;28;20225;-70
2022/10/10 02:05:24;;;;;;;6.60;2.20;;;7.80;99.90;;;;;;4995020;28;20260;-69
2022/10/10 02:07:57;;;;;;;5.80;2.97;;;7.80;99.90;;;;;;5004885;28;20200;-70
2022/10/10 02:10:32;;;;;;;3.95;2.70;;;7.70;99.90;;;;;;5013767;28;20198;-70
2022/10/10 02:13:02;;;;;;;5.85;2.20;;;7.70;99.90;;;;;;5013565;28;20670;-69
2022/10/10 02:15:39;;;;;;;7.50;3.15;;;7.80;99.90;;;;;;5014622;28;20194;-70
2022/10/10 02:18:11;;;;;;;3.90;2.60;;;7.80;99.90;;;;;;4994726;28;20181;-68
2022/10/10 02:20:41;;;;;;;2.55;2.30;;;7.80;99.90;;;;;;5007854;28;20201;-69
2022/10/10 02:23:14;;;;;;;7.57;3.58;;;7.80;99.90;;;;;;5000864;28;20205;-69
2022/10/10 02:25:44;;;;;;;4.32;3.33;;;7.70;99.90;;;;;;5009716;28;20686;-69
2022/10/10 02:28:17;;;;;;;6.32;2.95;;;7.80;99.90;;;;;;5013761;28;20174;-68
2022/10/10 02:30:51;;;;;;;8.93;3.00;;;7.70;99.90;;;;;;5013707;28;20193;-69
2022/10/10 02:33:26;;;;;;;6.55;3.10;;;7.70;99.90;;;;;;5013579;28;20603;-68
2022/10/10 02:35:55;;;;;;;8.18;3.90;;;7.60;99.90;;;;;;5013676;28;20189;-68
2022/10/10 02:38:24;;;;;;;3.45;1.90;;;7.60;99.90;;;;;;5013606;28;20280;-70
2022/10/10 02:40:54;;;;;;;8.18;3.65;;;7.60;99.90;;;;;;5014195;28;20182;-70
2022/10/10 02:43:23;;;;;;;7.90;2.50;;;7.60;99.90;;;;;;5014253;28;20256;-69
2022/10/10 02:45:53;;;;;;;4.65;2.75;;;7.60;99.90;;;;;;5003746;28;20206;-69
2022/10/10 02:48:22;;;;;;;5.65;2.60;;;7.60;99.90;;;;;;5002566;28;20197;-69
2022/10/10 02:50:50;;;;;;;6.78;2.50;;;7.60;99.90;;;;;;5006840;28;20251;-69
2022/10/10 02:53:18;;;;;;;5.00;2.92;;;7.60;99.90;;;;;;5014235;28;20289;-69
2022/10/10 02:55:47;;;;;;;12.30;3.05;;;7.50;99.90;;;;;;5012618;28;20190;-68
2022/10/10 02:58:16;;;;;;;5.43;2.45;;;7.50;99.90;;;;;;5013959;28;20185;-70
2022/10/10 03:00:47;;;;;;;5.13;2.45;;;7.40;1.00;;;;;;5013833;28;20273;-69
2022/10/10 03:03:20;;;;;;;4.63;2.45;;;7.50;99.90;;;;;;5012684;28;20190;-70
2022/10/10 03:05:49;;;;;;;3.67;2.40;;;7.50;99.90;;;;;;5058029;22;20239;-68
2022/10/10 03:08:18;;;;;;;7.18;2.85;;;7.50;99.90;;;;;;5030058;28;20182;-67
2022/10/10 03:10:55;;;;;;;7.00;3.08;;;7.50;99.90;;;;;;5030111;28;20256;-68
2022/10/10 03:13:24;;;;;;;4.88;2.85;;;7.50;99.90;;;;;;5024376;28;20193;-68
2022/10/10 03:15:53;;;;;;;5.10;2.83;;;7.40;99.90;;;;;;5016634;28;20264;-68
2022/10/10 03:18:24;;;;;;;7.40;2.78;;;7.40;1.00;;;;;;5004943;28;20273;-68
2022/10/10 03:20:54;;;;;;;5.30;2.75;;;7.40;1.00;;;;;;4994554;28;20190;-68
2022/10/10 03:23:24;;;;;;;5.45;3.10;;;7.40;1.00;;;;;;4994800;28;20183;-68
2022/10/10 03:25:53;;;;;;;9.02;3.05;;;7.30;99.90;;;;;;5001469;28;20284;-67
2022/10/10 03:28:22;;;;;;;6.65;2.80;;;7.20;99.90;;;;;;5008239;28;20197;-68
2022/10/10 03:30:51;;;;;;;7.45;3.22;;;7.10;1.00;;;;;;5014375;28;20673;-68
2022/10/10 03:33:20;;;;;;;4.57;3.15;;;7.00;97.10;;;;;;5014420;28;20603;-68
2022/10/10 03:35:50;;;;;;;3.90;3.60;;;7.10;99.90;;;;;;5001105;28;20253;-66
2022/10/10 03:38:19;;;;;;;6.50;3.33;;;7.00;1.00;;;;;;4994001;28;20709;-67
2022/10/10 03:40:48;;;;;;;4.97;2.42;;;7.00;99.90;;;;;;4995510;28;20194;-68
2022/10/10 03:43:16;;;;;;;8.10;2.30;;;7.10;1.00;;;;;;4994419;28;20278;-67
2022/10/10 03:45:46;;;;;;;3.47;2.67;;;7.10;1.00;;;;;;5005421;28;20234;-67
2022/10/10 03:48:15;;;;;;;2.50;2.28;;;7.00;1.00;;;;;;5013912;28;20253;-68
2022/10/10 03:50:44;;;;;;;9.43;2.90;;;7.10;1.00;;;;;;5000094;28;20681;-67
2022/10/10 03:53:14;;;;;;;8.32;2.90;;;7.00;1.00;;;;;;4994095;28;20626;-68
2022/10/10 03:55:43;;;;;;;4.68;3.17;;;7.00;1.00;;;;;;5004901;28;20198;-67
2022/10/10 03:58:12;;;;;;;3.88;2.58;;;6.90;1.00;;;;;;4975426;28;20558;-67
2022/10/10 04:00:40;;;;;;;8.60;2.88;;;6.90;88.90;;;;;;5012204;28;20198;-67
2022/10/10 04:03:09;;;;;;;5.55;3.00;;;6.80;99.90;;;;;;5013313;28;20601;-68
2022/10/10 04:05:38;;;;;;;3.10;2.00;;;6.90;99.90;;;;;;4999426;28;20313;-68
2022/10/10 04:08:07;;;;;;;5.10;2.60;;;6.90;99.90;;;;;;4994352;28;20714;-66
2022/10/10 04:10:37;;;;;;;3.65;2.97;;;6.90;1.00;;;;;;4994337;28;20199;-67
2022/10/10 04:13:06;;;;;;;4.95;3.30;;;7.00;1.00;;;;;;5000232;28;20572;-67
2022/10/10 04:15:34;;;;;;;4.68;2.80;;;7.00;1.00;;;;;;5001149;28;20283;-67
2022/10/10 04:18:03;;;;;;;9.95;3.63;;;7.00;1.00;;;;;;5006515;28;20244;-66
2022/10/10 04:20:32;;;;;;;4.70;3.70;;;6.90;99.90;;;;;;5015239;28;20617;-67
2022/10/10 04:23:01;;;;;;;4.78;3.13;;;7.00;99.90;;;;;;5015627;28;20241;-68
2022/10/10 04:25:30;;;;;;;4.97;3.30;;;6.90;99.90;;;;;;5004950;28;20206;-68
2022/10/10 04:28:00;;;;;;;6.70;3.60;;;6.90;99.90;;;;;;4994961;28;20198;-68
2022/10/10 04:30:32;;;;;;;8.45;3.80;;;6.90;99.90;;;;;;4993631;28;20186;-68
2022/10/10 04:33:00;;;;;;;3.40;3.05;;;6.80;99.90;;;;;;4996112;28;20259;-68
2022/10/10 04:35:29;;;;;;;6.80;4.00;;;6.80;1.00;;;;;;4996878;28;20211;-68
2022/10/10 04:37:58;;;;;;;3.45;2.38;;;6.80;1.00;;;;;;4996779;28;20183;-66
2022/10/10 04:40:29;;;;;;;5.50;3.88;;;6.70;1.00;;;;;;4997613;28;20629;-67
2022/10/10 04:42:59;;;;;;;6.10;2.85;;;6.70;1.00;;;;;;5014538;28;20254;-67
2022/10/10 04:45:28;;;;;;;10.30;3.80;;;6.70;1.00;;;;;;5013413;28;20237;-67
2022/10/10 04:48:02;;;;;;;6.35;3.38;;;6.70;1.00;;;;;;5016653;28;20209;-68
2022/10/10 04:50:32;;;;;;;8.23;4.10;;;6.70;1.00;;;;;;5016218;28;20620;-68
2022/10/10 04:53:01;;;;;;;4.57;2.95;;;6.60;1.00;;;;;;5014867;28;20185;-68
2022/10/10 04:55:32;;;;;;;7.20;2.97;;;6.60;1.00;;;;;;5013797;28;20684;-67
2022/10/10 04:58:03;;;;;;;4.57;2.92;;;6.50;99.90;;;;;;5013208;28;20273;-65
2022/10/10 05:00:31;;;;;;;4.20;3.20;;;6.60;99.90;;;;;;5009969;28;20245;-66
2022/10/10 05:03:00;;;;;;;11.75;3.58;;;6.60;99.90;;;;;;4993683;28;20270;-65
2022/10/10 05:05:29;;;;;;;7.75;3.83;;;6.60;1.00;;;;;;4993216;28;20210;-67
2022/10/10 05:07:58;;;;;;;4.75;3.15;;;6.50;1.00;;;;;;4991608;28;20290;-66
2022/10/10 05:10:26;;;;;;;10.88;4.20;;;6.50;99.90;;;;;;4992812;28;20206;-66
2022/10/10 05:12:55;;;;;;;7.30;3.83;;;6.50;99.90;;;;;;4991742;28;20233;-66
2022/10/10 05:15:25;;;;;;;6.45;3.47;;;6.50;99.90;;;;;;5004868;28;20230;-67
2022/10/10 05:17:54;;;;;;;7.20;3.90;;;6.50;99.90;;;;;;4992384;28;20202;-66
2022/10/10 05:20:23;;;;;;;4.25;3.58;;;6.50;99.90;;;;;;4992472;28;20374;-66
2022/10/10 05:22:51;;;;;;;4.90;3.75;;;6.50;6.10;;;;;;4992594;28;20273;-66
2022/10/10 05:25:21;;;;;;;11.55;4.20;;;6.50;99.90;;;;;;4996477;28;20234;-66
2022/10/10 05:27:49;;;;;;;7.40;2.70;;;6.50;55.30;;;;;;5015855;28;20190;-65
2022/10/10 05:30:18;;;;;;;7.28;3.70;;;6.50;1.00;;;;;;5014018;28;20221;-65
2022/10/10 05:32:49;;;;;;;6.45;3.30;;;6.50;1.00;;;;;;5023541;28;20190;-66
2022/10/10 05:35:18;;;;;;;5.90;3.28;;;6.50;1.00;;;;;;5007259;28;20222;-66
2022/10/10 05:37:47;;;;;;;5.63;3.20;;;6.50;1.00;;;;;;5006109;28;20198;-66
2022/10/10 05:40:15;;;;;;;7.00;3.83;;;6.50;1.00;;;;;;5012449;28;20198;-67
2022/10/10 05:42:44;;;;;;;4.85;3.00;;;6.50;1.00;;;;;;5014950;28;20194;-65
2022/10/10 05:45:13;;;;;;;9.20;4.60;;;6.50;1.00;;;;;;4997239;28;20232;-65
2022/10/10 05:47:41;;;;;;;13.02;4.47;;;6.60;99.90;;;;;;4993208;28;20213;-65
2022/10/10 05:50:29;;;;;;;5.32;3.13;;;6.60;99.90;;;;;;4993200;28;20193;-66
2022/10/10 05:52:58;;;;;;;4.88;3.92;;;6.60;99.90;;;;;;4998959;28;20296;-66
2022/10/10 05:55:27;;;;;;;4.05;3.70;;;6.60;99.90;;;;;;5011511;28;20210;-66
2022/10/10 05:57:56;;;;;;;10.45;4.00;;;6.70;99.90;;;;;;4998817;28;20477;-66
2022/10/10 06:00:24;;;;;;;5.72;3.80;;;6.70;99.90;;;;;;5008482;28;20269;-65
2022/10/10 06:02:53;;;;;;;7.90;4.00;;;6.80;99.90;;;;;;4998027;28;20201;-66
2022/10/10 06:05:24;;;;;;;5.38;4.32;;;6.80;99.90;;;;;;4997759;28;20264;-66
2022/10/10 06:07:53;;;;;;;6.53;4.25;;;6.90;99.90;;;;;;5011239;28;20229;-66
2022/10/10 06:10:41;;;;;;;8.70;4.65;;;6.90;99.90;;;;;;5009189;28;20190;-66
2022/10/10 06:13:11;;;;;;;7.13;4.55;;;7.00;99.90;;;;;;4994384;28;20259;-66
2022/10/10 06:15:39;;;;;;;8.50;3.75;;;7.00;99.90;;;;;;5005734;28;20225;-66
2022/10/10 06:18:09;;;;;;;6.18;3.92;;;7.00;99.90;;;;;;4996009;28;20201;-65
2022/10/10 06:20:40;;;;;;;5.28;3.65;;;7.10;99.90;;;;;;4992247;28;20190;-66
2022/10/10 06:23:09;;;;;;;8.90;4.85;;;7.10;99.90;;;;;;4991444;28;20171;-67
2022/10/10 06:25:38;;;;;;;9.50;3.75;;;7.20;99.90;;;;;;4994544;28;20216;-67
2022/10/10 06:28:09;;;;;;;6.53;4.18;;;7.30;99.90;;;;;;4996828;28;20197;-67
2022/10/10 06:30:42;;;;;;;5.15;3.78;;;7.30;99.90;;;;;;5007464;28;20635;-68
2022/10/10 06:33:13;;;;;;;5.60;3.58;;;7.50;99.90;;;;;;5001865;28;20604;-67
2022/10/10 06:35:44;;;;;;;12.20;3.90;;;7.60;99.90;;;;;;4993014;28;20222;-67
2022/10/10 06:38:15;;;;;;;9.23;4.30;;;7.70;99.90;;;;;;4995499;28;20202;-67
2022/10/10 06:40:44;;;;;;;7.95;4.05;;;7.80;99.90;;;;;;4998648;28;20210;-66
2022/10/10 06:43:14;;;;;;;6.93;3.60;;;7.90;99.90;;;;;;4991222;28;20210;-66
2022/10/10 06:45:45;;;;;;;8.65;3.83;;;7.90;99.90;;;;;;4975033;28;20227;-66
2022/10/10 06:48:18;;;;;;;6.45;4.10;;;7.90;99.90;;;;;;4997569;28;20347;-67
2022/10/10 06:50:58;;;;;;;8.50;3.72;;;7.90;99.90;;;;;;5005106;28;20731;-66
2022/10/10 06:53:27;;;;;;;7.07;4.13;;;8.10;99.90;;;;;;4999476;28;20213;-66
2022/10/10 06:55:56;;;;;;;8.07;3.95;;;8.20;99.90;;;;;;5009289;28;20225;-66
2022/10/10 06:58:26;;;;;;;9.18;3.70;;;8.50;99.90;;;;;;4997136;28;20566;-67
2022/10/10 07:00:58;;;;;;;9.30;3.70;;;8.50;99.90;;;;;;4998357;28;20834;-66
2022/10/10 07:03:27;;;;;;;5.53;3.50;;;8.60;99.90;;;;;;5001723;28;20552;-67
2022/10/10 07:05:59;;;;;;;6.10;3.80;;;8.70;99.90;;;;;;4990634;28;20222;-66
2022/10/10 07:08:28;;;;;;;5.38;3.97;;;8.80;99.90;;;;;;4990419;28;20815;-67
2022/10/10 07:10:57;;;;;;;6.55;3.95;;;8.80;99.90;;;;;;5005769;28;20194;-67
2022/10/10 07:13:25;;;;;;;6.65;5.15;;;8.90;99.90;;;;;;5001853;28;20614;-67
2022/10/10 07:15:54;;;;;;;6.32;3.40;;;9.00;99.90;;;;;;4989350;28;20250;-68
2022/10/10 07:18:23;;;;;;;4.90;3.08;;;9.10;98.80;;;;;;4989361;28;20225;-67
2022/10/10 07:20:58;;;;;;;9.15;4.15;;;9.10;98.10;;;;;;4993300;28;20194;-67
2022/10/10 07:23:27;;;;;;;10.88;4.05;;;9.30;95.60;;;;;;5001221;28;20550;-66
2022/10/10 07:26:00;;;;;;;6.13;3.83;;;9.30;92.80;;;;;;4989280;28;20218;-67
2022/10/10 07:28:29;;;;;;;13.32;4.53;;;9.40;91.20;;;;;;5006038;28;20301;-65
2022/10/10 07:31:04;;;;;;;8.35;4.90;;;9.40;90.20;;;;;;5010116;28;20182;-67
2022/10/10 07:33:33;;;;;;;5.33;3.80;;;9.50;87.90;;;;;;5002550;28;20197;-67
2022/10/10 07:36:03;;;;;;;4.55;3.70;;;9.40;82.50;;;;;;5010365;28;20419;-68
2022/10/10 07:38:32;;;;;;;8.63;3.67;;;9.40;80.90;;;;;;5006026;28;20191;-66
2022/10/10 07:41:00;;;;;;;9.90;4.97;;;9.30;83.90;;;;;;4994547;28;20506;-67
2022/10/10 07:43:29;;;;;;;8.70;5.22;;;9.30;88.80;;;;;;5009927;28;20205;-66
2022/10/10 07:45:58;;;;;;;8.43;4.40;;;9.30;89.70;;;;;;5003120;28;20210;-67
2022/10/10 07:48:32;;;;;;;9.48;4.75;;;9.30;86.50;;;;;;5009770;28;20232;-67
2022/10/10 07:51:05;;;;;;;9.95;4.65;;;9.40;85.10;;;;;;4995486;28;20304;-66
2022/10/10 07:53:34;;;;;;;13.40;4.07;;;9.60;78.30;;;;;;4991303;28;20249;-67
2022/10/10 07:56:04;;;;;;;10.30;4.23;;;9.70;73.70;;;;;;4990048;28;20483;-67
2022/10/10 07:58:34;;;;;;;5.67;3.60;;;9.90;69.60;;;;;;4992966;28;20764;-67
2022/10/10 08:01:03;;;;;;;15.03;3.73;;;10.00;63.60;;;;;;4996439;28;20433;-67
2022/10/10 08:03:32;;;;;;;9.10;3.90;;;10.20;58.20;;;;;;4995051;28;20416;-67
2022/10/10 08:06:05;;;;;;;7.37;4.73;;;10.30;55.20;;;;;;5010739;28;20880;-69
2022/10/10 08:08:34;;;;;;;7.27;4.07;;;10.30;52.60;;;;;;5000429;28;20531;-67
2022/10/10 08:11:17;;;;;;;9.33;4.80;;;10.30;52.00;;;;;;4977383;28;20430;-67
2022/10/10 08:13:45;;;;;;;9.67;3.77;;;10.30;49.20;;;;;;5012432;28;20616;-68
2022/10/10 08:16:14;;;;;;;9.00;4.37;;;10.20;45.90;;;;;;5000597;28;20968;-67
2022/10/10 08:18:43;;;;;;;8.53;3.93;;;10.30;43.40;;;;;;5004585;28;20452;-65
2022/10/10 08:21:15;;;;;;;7.53;3.27;;;10.30;42.30;;;;;;5011245;28;20928;-66
2022/10/10 08:23:44;;;;;;;8.13;3.80;;;10.30;41.10;;;;;;4993712;28;20457;-67
2022/10/10 08:26:14;;;;;;;5.27;3.40;;;10.30;41.50;;;;;;4999751;28;20422;-66
2022/10/10 08:28:43;;;;;;;9.63;3.57;;;10.50;41.50;;;;;;4994637;28;20530;-66
2022/10/10 08:31:14;;;;;;;4.40;3.30;;;10.80;40.50;;;;;;4996902;28;20397;-66
2022/10/10 08:33:44;;;;;;;8.13;3.83;;;11.10;36.70;;;;;;5005405;28;20444;-67
2022/10/10 08:36:16;;;;;;;7.57;3.70;;;11.30;28.20;;;;;;5011776;28;20472;-67
2022/10/10 08:38:46;;;;;;;3.87;3.40;;;11.50;25.50;;;;;;5009537;28;20440;-66
2022/10/10 08:41:24;;;;;;;5.90;3.57;;;11.60;22.80;;;;;;5001126;28;20786;-66
2022/10/10 08:43:56;;;;;;;6.33;3.80;;;11.70;22.50;;;;;;4997144;28;20433;-68
2022/10/10 08:46:34;;;;;;;5.50;3.50;;;11.80;20.10;;;;;;5001601;28;20490;-70
2022/10/10 08:49:16;;;;;;;7.70;3.70;;;12.00;18.50;;;;;;5015832;28;20891;-68
2022/10/10 08:51:51;;;;;;;9.13;3.50;;;12.00;17.00;;;;;;5003633;22;20393;-68
2022/10/10 08:54:23;;;;;;;5.90;2.87;;;12.00;16.30;;;;;;5052472;28;20386;-69
2022/10/10 08:56:52;;;;;;;5.57;3.10;;;12.10;23.10;;;;;;5051823;28;20381;-70
2022/10/10 08:59:26;;;;;;;4.37;3.30;;;12.10;15.00;;;;;;5068427;28;20425;-68
2022/10/10 09:02:04;;;;;;;9.87;3.60;;;12.20;12.60;;;;;;5071643;28;20406;-69
2022/10/10 09:04:47;;;;;;;7.60;4.40;;;12.30;11.90;;;;;;5045558;28;20438;-70
2022/10/10 09:07:26;;;;;;;4.67;3.97;;;12.50;10.90;;;;;;5038218;28;20438;-69
2022/10/10 09:10:07;;;;;;;5.90;3.70;;;12.50;9.10;;;;;;5039572;28;20402;-70
2022/10/10 09:12:45;;;;;;;3.50;2.70;;;12.60;8.40;;;;;;5051613;28;20952;-69
2022/10/10 09:15:20;;;;;;;3.60;3.20;;;12.60;7.00;;;;;;5051656;28;20914;-69
2022/10/10 09:17:59;;;;;;;7.93;4.23;;;12.80;7.30;;;;;;5049732;28;20498;-69
2022/10/10 09:20:48;;;;;;;6.63;3.90;;;13.10;6.10;;;;;;5051470;28;20418;-70
2022/10/10 09:23:22;;;;;;;9.47;4.30;;;13.20;4.90;;;;;;5047761;28;20916;-69
2022/10/10 09:25:57;;;;;;;5.93;4.10;;;13.30;2.10;;;;;;5055463;28;20477;-69
2022/10/10 09:28:37;;;;;;;4.53;3.47;;;13.50;1.40;;;;;;5054223;28;20527;-69
2022/10/10 09:31:11;;;;;;;5.33;3.80;;;13.80;1.00;;;;;;5059836;28;20395;-70
2022/10/10 09:33:44;;;;;;;2.93;2.27;;;14.10;1.00;;;;;;5070325;28;20646;-69
2022/10/10 09:36:17;;;;;;;6.87;2.97;;;14.20;1.00;;;;;;5058766;28;20544;-71
2022/10/10 09:38:52;;;;;;;4.73;3.00;;;14.20;1.00;;;;;;5054565;28;20421;-70
2022/10/10 09:41:26;;;;;;;3.10;2.80;;;14.20;1.00;;;;;;5054951;28;20840;-70
2022/10/10 09:43:57;;;;;;;5.20;3.33;;;14.40;1.00;;;;;;5050888;28;20446;-71
2022/10/10 09:46:26;;;;;;;8.20;3.30;;;14.60;1.00;;;;;;5054771;28;20825;-70
2022/10/10 09:48:55;;;;;;;3.87;2.80;;;14.90;1.00;;;;;;5053438;28;20436;-70
2022/10/10 09:51:24;;;;;;;3.77;2.50;;;15.00;1.00;;;;;;5045336;28;20950;-69
2022/10/10 09:53:54;;;;;;;3.27;2.90;;;15.10;1.00;;;;;;5043700;28;20479;-69
2022/10/10 09:56:25;;;;;;;3.97;3.00;;;15.20;1.00;;;;;;5050386;28;20417;-69
2022/10/10 09:58:55;;;;;;;4.77;3.53;;;15.20;1.00;;;;;;5048571;28;20457;-69
2022/10/10 10:01:27;;;;;;;3.70;2.77;;;15.50;1.00;;;;;;5049984;28;20960;-70
2022/10/10 10:04:12;;;;;;;6.53;3.07;;;15.80;1.00;;;;;;5032985;28;20406;-70
2022/10/10 10:07:07;;;;;;;4.90;3.30;;;15.90;1.00;;;;;;5029035;28;20472;-71
2022/10/10 10:09:38;;;;;;;3.83;2.80;;;16.00;1.00;;;;;;5031930;28;20459;-72
2022/10/10 10:12:07;;;;;;;4.00;3.07;;;16.20;1.00;;;;;;5046984;28;20434;-70
2022/10/10 10:14:38;;;;;;;4.53;3.40;;;15.90;1.00;;;;;;5034341;28;20432;-69
2022/10/10 10:17:08;;;;;;;9.00;2.80;;;15.60;1.00;;;;;;5044687;28;20433;-71
2022/10/10 10:19:39;;;;;;;6.30;3.17;;;15.50;1.00;;;;;;5053235;28;20513;-70
2022/10/10 10:22:24;;;;;;;5.97;3.47;;;15.30;1.00;;;;;;5046701;28;20518;-70
2022/10/10 10:24:55;;;;;;;4.10;2.90;;;15.20;1.00;;;;;;5034678;28;20455;-69
2022/10/10 10:27:26;;;;;;;7.10;3.23;;;15.40;1.00;;;;;;5050132;28;20791;-70
2022/10/10 10:29:57;;;;;;;9.83;4.33;;;15.50;1.00;;;;;;5042722;28;20517;-72
2022/10/10 10:32:45;;;;;;;3.60;3.23;;;15.60;1.00;;;;;;5056539;28;20462;-70
2022/10/10 10:35:23;;;;;;;8.70;3.30;;;15.60;1.00;;;;;;5029724;28;20527;-69
2022/10/10 10:38:21;;;;;;;2.73;2.40;;;15.60;1.00;;;;;;5029470;28;20422;-70
2022/10/10 10:40:59;;;;;;;3.93;2.57;;;15.80;1.00;;;;;;5045063;28;20401;-69
2022/10/10 10:43:46;;;;;;;5.20;4.60;;;15.90;1.00;;;;;;5046659;28;20451;-70
2022/10/10 10:46:26;;;;;;;5.93;3.10;;;16.00;1.00;;;;;;5064790;28;20496;-69
2022/10/10 10:49:01;;;;;;;6.27;3.67;;;16.00;1.00;;;;;;5069255;28;20424;-68
2022/10/10 10:51:50;;;;;;;3.57;3.23;;;16.10;1.00;;;;;;5061339;28;20439;-69
2022/10/10 10:54:33;;;;;;;3.97;3.47;;;15.80;1.00;;;;;;5052843;28;20435;-69
2022/10/10 10:57:15;;;;;;;6.80;3.33;;;15.80;1.00;;;;;;5049432;28;20900;-70
2022/10/10 11:00:11;;;;;;;3.57;3.20;;;15.80;1.00;;;;;;5045705;28;20493;-69
2022/10/10 11:03:15;;;;;;;4.73;3.43;;;16.00;1.00;;;;;;5049850;28;21000;-69
2022/10/10 11:06:16;;;;;;;8.40;4.10;;;16.10;1.00;;;;;;5050815;28;20462;-68
2022/10/10 11:08:57;;;;;;;2.87;2.60;;;16.20;1.00;;;;;;5059740;28;20513;-70
2022/10/10 11:11:48;;;;;;;3.90;2.50;;;16.30;1.00;;;;;;5049551;28;20521;-71
2022/10/10 11:14:30;;;;;;;4.20;3.10;;;16.30;1.00;;;;;;5047159;28;20424;-69
2022/10/10 11:17:03;;;;;;;3.10;2.73;;;16.20;1.00;;;;;;5027607;28;20512;-69
2022/10/10 11:19:38;;;;;;;8.23;3.33;;;16.20;1.00;;;;;;5043712;28;20427;-69
2022/10/10 11:22:10;;;;;;;4.70;2.73;;;16.30;1.00;;;;;;5060555;28;20480;-70
2022/10/10 11:24:45;;;;;;;11.50;3.63;;;16.30;1.00;;;;;;5053025;28;20484;-70
2022/10/10 11:27:19;;;;;;;4.63;3.27;;;16.20;1.00;;;;;;5053330;28;20916;-70
2022/10/10 11:29:57;;;;;;;2.87;2.20;;;16.00;1.00;;;;;;5047218;28;20961;-70
2022/10/10 11:32:31;;;;;;;4.43;3.43;;;16.00;1.00;;;;;;5043588;28;20483;-69
2022/10/10 11:35:14;;;;;;;5.27;2.50;;;16.10;1.00;;;;;;5050625;28;20566;-69
2022/10/10 11:37:47;;;;;;;6.30;3.37;;;16.20;1.00;;;;;;5059888;28;20445;-69
2022/10/10 11:40:32;;;;;;;10.80;3.07;;;16.20;1.00;;;;;;5059608;28;20469;-69
2022/10/10 11:43:05;;;;;;;4.13;2.60;;;16.20;1.00;;;;;;5048279;28;20430;-69
2022/10/10 11:45:43;;;;;;;5.50;3.00;;;16.30;1.00;;;;;;5045250;28;20820;-69
2022/10/10 11:48:24;;;;;;;6.13;3.40;;;16.40;1.00;;;;;;5044045;28;20441;-70
2022/10/10 11:50:56;;;;;;;2.93;2.50;;;16.50;1.00;;;;;;5047474;28;20425;-71
2022/10/10 11:53:32;;;;;;;4.73;3.83;;;16.60;1.00;;;;;;5052503;28;20454;-70
2022/10/10 11:56:10;;;;;;;5.60;2.53;;;16.60;1.00;;;;;;5048869;28;20465;-71
2022/10/10 11:58:41;;;;;;;4.30;3.10;;;16.70;1.00;;;;;;5042725;28;20432;-71
2022/10/10 12:01:16;;;;;;;7.03;2.97;;;16.80;1.00;;;;;;5062574;28;20924;-69
2022/10/10 12:03:44;;;;;;;4.80;2.93;;;16.80;1.00;;;;;;5058255;28;20435;-68
2022/10/10 12:06:19;;;;;;;7.60;2.90;;;16.80;1.00;;;;;;5058545;28;20685;-69
2022/10/10 12:08:55;;;;;;;4.83;3.43;;;16.80;1.00;;;;;;5058004;28;20838;-71
2022/10/10 12:11:30;;;;;;;4.20;2.70;;;16.80;1.00;;;;;;5056947;28;20822;-71
2022/10/10 12:14:01;;;;;;;8.00;3.37;;;16.90;1.00;;;;;;5047986;28;20441;-70
2022/10/10 12:16:35;;;;;;;5.53;2.80;;;16.90;1.00;;;;;;5046905;28;20990;-70
2022/10/10 12:19:07;;;;;;;3.50;2.93;;;17.00;1.00;;;;;;5052779;28;20430;-70
2022/10/10 12:21:54;;;;;;;4.60;2.70;;;17.20;1.00;;;;;;5047965;28;20439;-70
2022/10/10 12:24:24;;;;;;;4.00;2.90;;;17.20;1.00;;;;;;5046655;28;20439;-69
2022/10/10 12:27:29;;;;;;;5.87;3.47;;;17.30;1.00;;;;;;5050889;28;20423;-69
2022/10/10 12:30:25;;;;;;;3.90;2.73;;;17.30;1.00;;;;;;5053606;28;20465;-71
2022/10/10 12:32:55;;;;;;;6.30;2.80;;;17.40;1.00;;;;;;5052624;28;20469;-71
2022/10/10 12:35:41;;;;;;;9.60;5.20;;;17.50;1.00;;;;;;5043518;28;20486;-70
2022/10/10 12:38:19;;;;;;;5.90;3.30;;;17.50;1.00;;;;;;5053568;28;20477;-71
2022/10/10 12:41:15;;;;;;;4.30;3.20;;;17.60;1.00;;;;;;5053015;28;20834;-71
2022/10/10 12:43:49;;;;;;;7.80;3.27;;;17.50;1.00;;;;;;5064811;28;20538;-70
2022/10/10 12:46:29;;;;;;;5.67;3.00;;;17.50;1.00;;;;;;5042386;28;20931;-71
2022/10/10 12:49:16;;;;;;;8.20;4.10;;;17.50;1.00;;;;;;5045550;28;20524;-70
2022/10/10 12:51:58;;;;;;;5.27;3.37;;;17.40;1.00;;;;;;5046742;28;20804;-68
2022/10/10 12:54:32;;;;;;;10.30;4.17;;;17.50;1.00;;;;;;5052650;28;20949;-71
2022/10/10 12:57:14;;;;;;;10.20;3.87;;;17.60;1.00;;;;;;5043565;28;20459;-71
2022/10/10 12:59:43;;;;;;;5.53;3.83;;;17.80;1.00;;;;;;5048709;28;20429;-70
2022/10/10 13:02:18;;;;;;;8.20;3.73;;;17.80;1.00;;;;;;5061306;28;20458;-70
2022/10/10 13:04:51;;;;;;;4.60;4.07;;;17.80;1.00;;;;;;5045033;28;20458;-70
2022/10/10 13:07:21;;;;;;;6.30;3.70;;;17.80;1.00;;;;;;5048671;28;20866;-70
2022/10/10 13:09:52;;;;;;;3.50;2.33;;;17.80;1.00;;;;;;5050789;28;20617;-70
2022/10/10 13:12:29;;;;;;;12.87;3.27;;;18.00;1.00;;;;;;5051820;28;20745;-71
2022/10/10 13:14:58;;;;;;;4.83;3.00;;;18.00;1.00;;;;;;5046074;28;21020;-70
2022/10/10 13:17:30;;;;;;;6.03;3.83;;;18.00;1.00;;;;;;5052631;28;20858;-69
2022/10/10 13:20:01;;;;;;;5.80;3.53;;;18.00;1.00;;;;;;5052163;28;20414;-70
2022/10/10 13:22:32;;;;;;;5.20;3.07;;;18.00;1.00;;;;;;5051755;28;20803;-70
2022/10/10 13:25:03;;;;;;;5.37;2.73;;;18.00;1.00;;;;;;5051370;28;20986;-69
2022/10/10 13:27:35;;;;;;;5.17;3.40;;;17.90;1.00;;;;;;5037240;28;20466;-70
2022/10/10 13:30:07;;;;;;;8.10;4.40;;;17.90;1.00;;;;;;5031626;28;20460;-71